sensor_id;sensor_type;location;lat;lon;timestamp;temperature;humidity
652;DHT22;310;48.490;9.200;2023-03-14T00:00:52;13.00;67.10
652;DHT22;310;48.490;9.200;2023-03-14T00:03:18;13.30;65.30
652;DHT22;310;48.490;9.200;2023-03-14T00:05:43;12.70;63.30
652;DHT22;310;48.490;9.200;2023-03-14T00:08:09;12.70;64.00
652;DHT22;310;48.490;9.200;2023-03-14T00:10:36;13.30;62.50
652;DHT22;310;48.490;9.200;2023-03-14T00:13:02;12.90;63.50
652;DHT22;310;48.490;9.200;2023-03-14T00:15:27;12.60;67.90
652;DHT22;310;48.490;9.200;2023-03-14T00:17:53;12.70;66.80
652;DHT22;310;48.490;9.200;2023-03-14T00:20:18;12.80;64.60
652;DHT22;310;48.490;9.200;2023-03-14T00:22:44;12.60;63.90
652;DHT22;310;48.490;9.200;2023-03-14T00:25:11;12.90;63.80
652;DHT22;310;48.490;9.200;2023-03-14T00:27:37;12.10;65.90
652;DHT22;310;48.490;9.200;2023-03-14T00:30:04;12.50;64.30
652;DHT22;310;48.490;9.200;2023-03-14T00:32:30;12.10;62.90
652;DHT22;310;48.490;9.200;2023-03-14T00:34:56;12.20;63.70
652;DHT22;310;48.490;9.200;2023-03-14T00:37:21;12.10;59.90
652;DHT22;310;48.490;9.200;2023-03-14T00:39:47;12.30;57.20
652;DHT22;310;48.490;9.200;2023-03-14T00:42:13;12.80;58.10
652;DHT22;310;48.490;9.200;2023-03-14T00:44:38;12.50;56.60
652;DHT22;310;48.490;9.200;2023-03-14T00:47:04;12.60;58.80
652;DHT22;310;48.490;9.200;2023-03-14T00:49:30;12.70;55.00
652;DHT22;310;48.490;9.200;2023-03-14T00:51:55;12.70;53.50
652;DHT22;310;48.490;9.200;2023-03-14T00:54:21;13.00;52.10
652;DHT22;310;48.490;9.200;2023-03-14T00:56:47;13.10;51.70
652;DHT22;310;48.490;9.200;2023-03-14T00:59:13;13.10;51.50
652;DHT22;310;48.490;9.200;2023-03-14T01:01:39;13.30;51.60
652;DHT22;310;48.490;9.200;2023-03-14T01:04:06;13.10;50.10
652;DHT22;310;48.490;9.200;2023-03-14T01:06:31;13.30;50.10
652;DHT22;310;48.490;9.200;2023-03-14T01:08:57;13.50;49.60
652;DHT22;310;48.490;9.200;2023-03-14T01:11:26;13.60;48.40
652;DHT22;310;48.490;9.200;2023-03-14T01:13:53;13.70;47.60
652;DHT22;310;48.490;9.200;2023-03-14T01:16:20;13.70;48.30
652;DHT22;310;48.490;9.200;2023-03-14T01:18:47;13.90;48.40
652;DHT22;310;48.490;9.200;2023-03-14T01:21:16;14.10;49.40
652;DHT22;310;48.490;9.200;2023-03-14T01:23:42;14.30;46.50
652;DHT22;310;48.490;9.200;2023-03-14T01:26:10;14.40;48.50
652;DHT22;310;48.490;9.200;2023-03-14T01:28:36;14.30;46.60
652;DHT22;310;48.490;9.200;2023-03-14T01:31:06;14.50;46.90
652;DHT22;310;48.490;9.200;2023-03-14T01:33:32;14.70;43.00
652;DHT22;310;48.490;9.200;2023-03-14T01:35:58;14.70;44.40
652;DHT22;310;48.490;9.200;2023-03-14T01:38:24;14.70;44.30
652;DHT22;310;48.490;9.200;2023-03-14T01:40:50;14.70;43.70
652;DHT22;310;48.490;9.200;2023-03-14T01:43:17;14.70;43.70
652;DHT22;310;48.490;9.200;2023-03-14T01:51:02;14.60;44.00
652;DHT22;310;48.490;9.200;2023-03-14T01:53:29;14.50;45.20
652;DHT22;310;48.490;9.200;2023-03-14T01:55:55;14.50;41.70
652;DHT22;310;48.490;9.200;2023-03-14T01:58:24;14.30;44.70
652;DHT22;310;48.490;9.200;2023-03-14T02:00:53;14.50;43.50
652;DHT22;310;48.490;9.200;2023-03-14T02:03:20;14.50;43.00
652;DHT22;310;48.490;9.200;2023-03-14T02:05:48;14.30;43.40
652;DHT22;310;48.490;9.200;2023-03-14T02:08:19;13.90;43.40
652;DHT22;310;48.490;9.200;2023-03-14T02:10:47;13.80;44.30
652;DHT22;310;48.490;9.200;2023-03-14T02:13:14;13.70;44.50
652;DHT22;310;48.490;9.200;2023-03-14T02:15:41;13.80;43.80
652;DHT22;310;48.490;9.200;2023-03-14T02:18:08;13.60;43.70
652;DHT22;310;48.490;9.200;2023-03-14T02:20:52;13.90;44.50
652;DHT22;310;48.490;9.200;2023-03-14T02:26:03;13.80;43.50
652;DHT22;310;48.490;9.200;2023-03-14T02:28:31;14.00;41.80
652;DHT22;310;48.490;9.200;2023-03-14T02:30:56;14.00;42.20
652;DHT22;310;48.490;9.200;2023-03-14T02:33:23;13.90;42.10
652;DHT22;310;48.490;9.200;2023-03-14T02:36:00;13.70;42.80
652;DHT22;310;48.490;9.200;2023-03-14T02:38:51;13.70;44.00
652;DHT22;310;48.490;9.200;2023-03-14T02:41:17;13.50;43.00
652;DHT22;310;48.490;9.200;2023-03-14T02:43:43;13.40;43.70
652;DHT22;310;48.490;9.200;2023-03-14T02:46:12;13.50;44.40
652;DHT22;310;48.490;9.200;2023-03-14T02:48:43;13.60;43.80
652;DHT22;310;48.490;9.200;2023-03-14T02:51:10;13.70;42.70
652;DHT22;310;48.490;9.200;2023-03-14T02:53:37;13.60;43.20
652;DHT22;310;48.490;9.200;2023-03-14T02:56:04;13.50;43.70
652;DHT22;310;48.490;9.200;2023-03-14T02:58:30;13.50;42.70
652;DHT22;310;48.490;9.200;2023-03-14T03:00:55;13.40;44.30
652;DHT22;310;48.490;9.200;2023-03-14T03:03:21;12.90;45.10
652;DHT22;310;48.490;9.200;2023-03-14T03:05:48;12.90;44.80
652;DHT22;310;48.490;9.200;2023-03-14T03:08:15;12.90;45.30
652;DHT22;310;48.490;9.200;2023-03-14T03:10:41;13.20;43.90
652;DHT22;310;48.490;9.200;2023-03-14T03:13:07;13.20;43.20
652;DHT22;310;48.490;9.200;2023-03-14T03:15:32;13.40;42.90
652;DHT22;310;48.490;9.200;2023-03-14T03:17:58;13.60;42.20
652;DHT22;310;48.490;9.200;2023-03-14T03:20:24;13.30;42.80
652;DHT22;310;48.490;9.200;2023-03-14T03:22:49;12.90;43.50
652;DHT22;310;48.490;9.200;2023-03-14T03:25:15;13.20;43.70
652;DHT22;310;48.490;9.200;2023-03-14T03:27:41;12.80;43.40
652;DHT22;310;48.490;9.200;2023-03-14T03:30:08;13.20;43.60
652;DHT22;310;48.490;9.200;2023-03-14T03:32:34;13.00;42.90
652;DHT22;310;48.490;9.200;2023-03-14T03:34:59;12.90;43.50
652;DHT22;310;48.490;9.200;2023-03-14T03:37:25;12.80;43.50
652;DHT22;310;48.490;9.200;2023-03-14T03:39:51;13.10;42.30
652;DHT22;310;48.490;9.200;2023-03-14T03:42:17;12.30;44.00
652;DHT22;310;48.490;9.200;2023-03-14T03:44:43;12.20;45.10
652;DHT22;310;48.490;9.200;2023-03-14T03:47:09;12.30;46.00
652;DHT22;310;48.490;9.200;2023-03-14T03:49:34;12.30;44.00
652;DHT22;310;48.490;9.200;2023-03-14T03:52:00;12.40;44.20
652;DHT22;310;48.490;9.200;2023-03-14T03:54:26;12.50;43.20
652;DHT22;310;48.490;9.200;2023-03-14T03:56:51;12.50;44.20
652;DHT22;310;48.490;9.200;2023-03-14T03:59:17;12.60;43.60
652;DHT22;310;48.490;9.200;2023-03-14T04:01:43;12.50;42.90
652;DHT22;310;48.490;9.200;2023-03-14T04:04:09;12.70;42.30
652;DHT22;310;48.490;9.200;2023-03-14T04:06:34;12.70;41.60
652;DHT22;310;48.490;9.200;2023-03-14T04:09:00;12.40;43.00
652;DHT22;310;48.490;9.200;2023-03-14T04:11:26;12.30;43.60
652;DHT22;310;48.490;9.200;2023-03-14T04:13:52;12.70;42.90
652;DHT22;310;48.490;9.200;2023-03-14T04:16:20;12.50;42.20
652;DHT22;310;48.490;9.200;2023-03-14T04:18:47;12.40;42.40
652;DHT22;310;48.490;9.200;2023-03-14T04:21:13;12.50;42.40
652;DHT22;310;48.490;9.200;2023-03-14T04:23:38;12.60;40.70
652;DHT22;310;48.490;9.200;2023-03-14T04:26:04;13.00;39.40
652;DHT22;310;48.490;9.200;2023-03-14T04:28:30;12.90;39.60
652;DHT22;310;48.490;9.200;2023-03-14T04:30:56;12.90;38.00
652;DHT22;310;48.490;9.200;2023-03-14T04:33:21;12.50;39.00
652;DHT22;310;48.490;9.200;2023-03-14T04:35:47;12.60;39.30
652;DHT22;310;48.490;9.200;2023-03-14T04:38:13;12.60;38.40
652;DHT22;310;48.490;9.200;2023-03-14T04:40:40;12.60;38.50
652;DHT22;310;48.490;9.200;2023-03-14T04:43:07;12.70;37.90
652;DHT22;310;48.490;9.200;2023-03-14T04:45:33;12.50;37.30
652;DHT22;310;48.490;9.200;2023-03-14T04:47:59;13.00;36.30
652;DHT22;310;48.490;9.200;2023-03-14T04:50:24;13.00;35.90
652;DHT22;310;48.490;9.200;2023-03-14T04:52:50;13.20;35.30
652;DHT22;310;48.490;9.200;2023-03-14T04:55:16;13.20;36.10
652;DHT22;310;48.490;9.200;2023-03-14T04:57:41;12.80;35.50
652;DHT22;310;48.490;9.200;2023-03-14T05:00:07;12.70;34.90
652;DHT22;310;48.490;9.200;2023-03-14T05:02:34;12.80;35.50
652;DHT22;310;48.490;9.200;2023-03-14T05:05:00;12.60;35.90
652;DHT22;310;48.490;9.200;2023-03-14T05:07:26;12.80;35.60
652;DHT22;310;48.490;9.200;2023-03-14T05:09:52;12.70;35.70
652;DHT22;310;48.490;9.200;2023-03-14T05:12:19;12.60;36.30
652;DHT22;310;48.490;9.200;2023-03-14T05:14:45;12.40;36.50
652;DHT22;310;48.490;9.200;2023-03-14T05:17:10;12.60;36.70
652;DHT22;310;48.490;9.200;2023-03-14T05:19:37;12.50;36.00
652;DHT22;310;48.490;9.200;2023-03-14T05:22:02;12.90;36.40
652;DHT22;310;48.490;9.200;2023-03-14T05:24:28;12.10;37.50
652;DHT22;310;48.490;9.200;2023-03-14T05:26:54;12.20;36.30
652;DHT22;310;48.490;9.200;2023-03-14T05:29:19;12.20;36.80
652;DHT22;310;48.490;9.200;2023-03-14T05:31:45;12.00;37.30
652;DHT22;310;48.490;9.200;2023-03-14T05:34:10;12.30;36.20
652;DHT22;310;48.490;9.200;2023-03-14T05:36:36;12.60;35.40
652;DHT22;310;48.490;9.200;2023-03-14T05:39:02;12.30;35.80
652;DHT22;310;48.490;9.200;2023-03-14T05:41:28;12.50;36.00
652;DHT22;310;48.490;9.200;2023-03-14T05:43:54;12.90;36.80
652;DHT22;310;48.490;9.200;2023-03-14T05:46:20;12.50;35.40
652;DHT22;310;48.490;9.200;2023-03-14T05:48:45;12.90;35.80
652;DHT22;310;48.490;9.200;2023-03-14T05:51:11;12.60;35.10
652;DHT22;310;48.490;9.200;2023-03-14T05:53:37;12.30;35.10
652;DHT22;310;48.490;9.200;2023-03-14T05:56:02;12.40;36.10
652;DHT22;310;48.490;9.200;2023-03-14T05:58:28;12.70;36.40
652;DHT22;310;48.490;9.200;2023-03-14T06:00:53;12.40;35.80
652;DHT22;310;48.490;9.200;2023-03-14T06:03:19;12.50;35.10
652;DHT22;310;48.490;9.200;2023-03-14T06:05:45;12.60;35.50
652;DHT22;310;48.490;9.200;2023-03-14T06:08:10;12.70;34.90
652;DHT22;310;48.490;9.200;2023-03-14T06:10:36;12.80;35.00
652;DHT22;310;48.490;9.200;2023-03-14T06:13:03;12.60;34.80
652;DHT22;310;48.490;9.200;2023-03-14T06:15:28;12.60;35.30
652;DHT22;310;48.490;9.200;2023-03-14T06:17:55;12.80;35.00
652;DHT22;310;48.490;9.200;2023-03-14T06:20:21;13.20;35.30
652;DHT22;310;48.490;9.200;2023-03-14T06:22:47;12.60;34.80
652;DHT22;310;48.490;9.200;2023-03-14T06:25:12;13.20;35.30
652;DHT22;310;48.490;9.200;2023-03-14T06:27:38;12.90;35.00
652;DHT22;310;48.490;9.200;2023-03-14T06:30:04;12.90;35.00
652;DHT22;310;48.490;9.200;2023-03-14T06:32:30;12.80;34.90
652;DHT22;310;48.490;9.200;2023-03-14T06:34:56;13.10;35.20
652;DHT22;310;48.490;9.200;2023-03-14T06:37:22;12.90;35.10
652;DHT22;310;48.490;9.200;2023-03-14T06:39:48;13.10;34.90
652;DHT22;310;48.490;9.200;2023-03-14T06:42:14;13.20;34.50
652;DHT22;310;48.490;9.200;2023-03-14T06:44:40;12.70;34.90
652;DHT22;310;48.490;9.200;2023-03-14T06:47:05;13.40;34.60
652;DHT22;310;48.490;9.200;2023-03-14T06:49:31;13.50;33.90
652;DHT22;310;48.490;9.200;2023-03-14T06:51:56;13.70;32.80
652;DHT22;310;48.490;9.200;2023-03-14T06:54:22;13.70;32.30
652;DHT22;310;48.490;9.200;2023-03-14T06:56:47;13.30;33.10
652;DHT22;310;48.490;9.200;2023-03-14T06:59:13;12.90;34.50
652;DHT22;310;48.490;9.200;2023-03-14T07:01:39;13.20;33.80
652;DHT22;310;48.490;9.200;2023-03-14T07:04:05;13.70;32.60
652;DHT22;310;48.490;9.200;2023-03-14T07:06:31;13.50;32.30
652;DHT22;310;48.490;9.200;2023-03-14T07:08:57;13.40;33.20
652;DHT22;310;48.490;9.200;2023-03-14T07:11:23;13.60;32.20
652;DHT22;310;48.490;9.200;2023-03-14T07:13:48;13.90;32.10
652;DHT22;310;48.490;9.200;2023-03-14T07:16:14;14.00;31.50
652;DHT22;310;48.490;9.200;2023-03-14T07:18:41;13.80;31.70
652;DHT22;310;48.490;9.200;2023-03-14T07:21:07;13.60;32.60
652;DHT22;310;48.490;9.200;2023-03-14T07:23:34;13.50;33.10
652;DHT22;310;48.490;9.200;2023-03-14T07:26:00;13.50;33.00
652;DHT22;310;48.490;9.200;2023-03-14T07:28:26;13.50;32.10
652;DHT22;310;48.490;9.200;2023-03-14T07:30:53;13.50;32.90
652;DHT22;310;48.490;9.200;2023-03-14T07:33:19;13.30;33.70
652;DHT22;310;48.490;9.200;2023-03-14T07:35:47;13.40;33.10
652;DHT22;310;48.490;9.200;2023-03-14T07:38:13;13.50;32.30
652;DHT22;310;48.490;9.200;2023-03-14T07:40:39;13.40;32.90
652;DHT22;310;48.490;9.200;2023-03-14T07:43:05;14.00;32.00
652;DHT22;310;48.490;9.200;2023-03-14T07:45:30;14.10;30.80
652;DHT22;310;48.490;9.200;2023-03-14T07:47:56;14.10;31.90
652;DHT22;310;48.490;9.200;2023-03-14T07:50:26;14.10;31.40
652;DHT22;310;48.490;9.200;2023-03-14T07:52:51;14.50;29.90
652;DHT22;310;48.490;9.200;2023-03-14T07:55:17;14.20;30.80
652;DHT22;310;48.490;9.200;2023-03-14T07:57:43;14.40;30.40
652;DHT22;310;48.490;9.200;2023-03-14T08:00:09;14.70;29.90
652;DHT22;310;48.490;9.200;2023-03-14T08:02:36;14.20;30.00
652;DHT22;310;48.490;9.200;2023-03-14T08:05:03;14.60;30.40
652;DHT22;310;48.490;9.200;2023-03-14T08:07:29;14.60;29.70
652;DHT22;310;48.490;9.200;2023-03-14T08:09:54;14.40;29.90
652;DHT22;310;48.490;9.200;2023-03-14T08:12:20;14.30;30.10
652;DHT22;310;48.490;9.200;2023-03-14T08:14:45;14.70;29.80
652;DHT22;310;48.490;9.200;2023-03-14T08:17:11;14.40;30.40
652;DHT22;310;48.490;9.200;2023-03-14T08:19:37;14.00;30.30
652;DHT22;310;48.490;9.200;2023-03-14T08:22:03;14.10;30.80
652;DHT22;310;48.490;9.200;2023-03-14T08:24:28;14.30;30.30
652;DHT22;310;48.490;9.200;2023-03-14T08:26:54;14.10;30.20
652;DHT22;310;48.490;9.200;2023-03-14T08:29:20;14.50;29.50
652;DHT22;310;48.490;9.200;2023-03-14T08:31:45;14.60;29.80
652;DHT22;310;48.490;9.200;2023-03-14T08:34:11;14.40;29.50
652;DHT22;310;48.490;9.200;2023-03-14T08:36:36;13.80;30.80
652;DHT22;310;48.490;9.200;2023-03-14T08:39:02;14.40;29.70
652;DHT22;310;48.490;9.200;2023-03-14T08:41:29;15.00;29.30
652;DHT22;310;48.490;9.200;2023-03-14T08:43:55;15.60;28.70
652;DHT22;310;48.490;9.200;2023-03-14T08:46:20;15.90;28.20
652;DHT22;310;48.490;9.200;2023-03-14T08:48:46;15.80;28.00
652;DHT22;310;48.490;9.200;2023-03-14T08:51:13;16.00;27.90
652;DHT22;310;48.490;9.200;2023-03-14T08:53:39;15.40;28.50
652;DHT22;310;48.490;9.200;2023-03-14T08:56:06;15.90;28.30
652;DHT22;310;48.490;9.200;2023-03-14T08:58:32;15.80;28.60
652;DHT22;310;48.490;9.200;2023-03-14T09:00:58;16.00;28.70
652;DHT22;310;48.490;9.200;2023-03-14T09:03:25;15.60;28.80
652;DHT22;310;48.490;9.200;2023-03-14T09:05:51;15.60;28.90
652;DHT22;310;48.490;9.200;2023-03-14T09:08:17;15.50;29.00
652;DHT22;310;48.490;9.200;2023-03-14T09:10:43;15.70;28.70
652;DHT22;310;48.490;9.200;2023-03-14T09:13:09;15.70;29.00
652;DHT22;310;48.490;9.200;2023-03-14T09:15:34;15.40;29.00
652;DHT22;310;48.490;9.200;2023-03-14T09:18:00;15.40;29.30
652;DHT22;310;48.490;9.200;2023-03-14T09:20:26;15.10;31.50
652;DHT22;310;48.490;9.200;2023-03-14T09:22:52;15.20;34.90
652;DHT22;310;48.490;9.200;2023-03-14T09:25:17;14.90;33.40
652;DHT22;310;48.490;9.200;2023-03-14T09:27:43;14.70;36.70
652;DHT22;310;48.490;9.200;2023-03-14T09:30:09;15.00;34.70
652;DHT22;310;48.490;9.200;2023-03-14T09:32:35;15.10;36.40
652;DHT22;310;48.490;9.200;2023-03-14T09:35:01;15.00;36.40
652;DHT22;310;48.490;9.200;2023-03-14T09:37:27;14.50;36.50
652;DHT22;310;48.490;9.200;2023-03-14T09:39:52;14.50;36.50
652;DHT22;310;48.490;9.200;2023-03-14T09:42:25;14.30;36.70
652;DHT22;310;48.490;9.200;2023-03-14T09:44:59;14.20;36.30
652;DHT22;310;48.490;9.200;2023-03-14T09:47:26;14.40;36.30
652;DHT22;310;48.490;9.200;2023-03-14T09:49:53;14.90;35.70
652;DHT22;310;48.490;9.200;2023-03-14T09:52:38;14.60;36.70
652;DHT22;310;48.490;9.200;2023-03-14T09:55:11;14.40;36.40
652;DHT22;310;48.490;9.200;2023-03-14T09:57:37;14.20;37.90
652;DHT22;310;48.490;9.200;2023-03-14T10:00:12;14.20;37.50
652;DHT22;310;48.490;9.200;2023-03-14T10:02:42;14.10;38.50
652;DHT22;310;48.490;9.200;2023-03-14T10:05:15;14.20;38.20
652;DHT22;310;48.490;9.200;2023-03-14T10:07:41;14.40;36.40
652;DHT22;310;48.490;9.200;2023-03-14T10:10:26;14.80;36.80
652;DHT22;310;48.490;9.200;2023-03-14T10:12:57;15.40;35.40
652;DHT22;310;48.490;9.200;2023-03-14T10:15:30;15.40;35.40
652;DHT22;310;48.490;9.200;2023-03-14T10:17:59;15.30;34.20
652;DHT22;310;48.490;9.200;2023-03-14T10:20:37;15.60;33.10
652;DHT22;310;48.490;9.200;2023-03-14T10:23:23;15.60;33.70
652;DHT22;310;48.490;9.200;2023-03-14T10:28:41;16.10;30.80
652;DHT22;310;48.490;9.200;2023-03-14T10:31:07;15.80;32.40
652;DHT22;310;48.490;9.200;2023-03-14T10:33:35;15.30;32.00
652;DHT22;310;48.490;9.200;2023-03-14T10:36:21;15.60;31.50
652;DHT22;310;48.490;9.200;2023-03-14T10:38:48;14.90;32.60
652;DHT22;310;48.490;9.200;2023-03-14T10:41:27;15.10;33.20
652;DHT22;310;48.490;9.200;2023-03-14T10:43:59;14.80;32.20
652;DHT22;310;48.490;9.200;2023-03-14T10:46:28;14.60;32.60
652;DHT22;310;48.490;9.200;2023-03-14T10:48:55;14.90;32.50
652;DHT22;310;48.490;9.200;2023-03-14T10:51:26;14.80;32.50
652;DHT22;310;48.490;9.200;2023-03-14T10:56:25;14.60;33.20
652;DHT22;310;48.490;9.200;2023-03-14T10:58:56;15.00;31.50
652;DHT22;310;48.490;9.200;2023-03-14T11:01:31;15.30;31.60
652;DHT22;310;48.490;9.200;2023-03-14T11:11:50;15.10;33.30
652;DHT22;310;48.490;9.200;2023-03-14T11:14:39;14.50;39.40
652;DHT22;310;48.490;9.200;2023-03-14T11:17:16;13.60;41.30
652;DHT22;310;48.490;9.200;2023-03-14T11:19:51;13.30;42.70
652;DHT22;310;48.490;9.200;2023-03-14T11:22:28;12.90;46.00
652;DHT22;310;48.490;9.200;2023-03-14T11:25:18;12.80;47.10
652;DHT22;310;48.490;9.200;2023-03-14T11:28:08;13.10;45.70
652;DHT22;310;48.490;9.200;2023-03-14T11:30:55;12.90;46.90
652;DHT22;310;48.490;9.200;2023-03-14T11:33:39;12.80;46.00
652;DHT22;310;48.490;9.200;2023-03-14T11:36:09;12.90;46.30
652;DHT22;310;48.490;9.200;2023-03-14T11:38:50;13.20;47.70
652;DHT22;310;48.490;9.200;2023-03-14T11:41:25;13.40;46.50
652;DHT22;310;48.490;9.200;2023-03-14T11:43:56;13.60;46.00
652;DHT22;310;48.490;9.200;2023-03-14T11:46:35;13.50;47.80
652;DHT22;310;48.490;9.200;2023-03-14T11:49:35;13.20;46.00
652;DHT22;310;48.490;9.200;2023-03-14T11:52:13;13.00;47.70
652;DHT22;310;48.490;9.200;2023-03-14T11:54:53;13.00;49.30
652;DHT22;310;48.490;9.200;2023-03-14T11:57:22;13.40;48.10
652;DHT22;310;48.490;9.200;2023-03-14T12:08:46;13.30;44.80
652;DHT22;310;48.490;9.200;2023-03-14T12:16:47;12.60;47.80
652;DHT22;310;48.490;9.200;2023-03-14T12:19:37;12.40;48.80
652;DHT22;310;48.490;9.200;2023-03-14T12:27:47;11.80;65.60
652;DHT22;310;48.490;9.200;2023-03-14T12:30:23;11.20;74.00
652;DHT22;310;48.490;9.200;2023-03-14T12:35:39;10.50;63.40
652;DHT22;310;48.490;9.200;2023-03-14T12:38:10;10.00;67.90
652;DHT22;310;48.490;9.200;2023-03-14T12:43:28;11.00;61.00
652;DHT22;310;48.490;9.200;2023-03-14T12:48:45;11.30;58.00
652;DHT22;310;48.490;9.200;2023-03-14T12:51:35;11.20;53.60
652;DHT22;310;48.490;9.200;2023-03-14T12:59:34;11.40;48.80
652;DHT22;310;48.490;9.200;2023-03-14T13:05:14;12.30;43.60
652;DHT22;310;48.490;9.200;2023-03-14T13:07:33;14.20;45.80
652;DHT22;310;48.490;9.200;2023-03-14T13:12:55;11.70;43.10
652;DHT22;310;48.490;9.200;2023-03-14T13:15:43;11.00;37.00
652;DHT22;310;48.490;9.200;2023-03-14T13:18:16;10.90;36.40
652;DHT22;310;48.490;9.200;2023-03-14T13:20:58;11.00;37.50
652;DHT22;310;48.490;9.200;2023-03-14T13:23:30;10.60;36.90
652;DHT22;310;48.490;9.200;2023-03-14T13:25:56;10.70;36.40
652;DHT22;310;48.490;9.200;2023-03-14T13:28:22;10.50;35.00
652;DHT22;310;48.490;9.200;2023-03-14T13:30:50;10.80;36.80
652;DHT22;310;48.490;9.200;2023-03-14T13:33:22;10.60;35.50
652;DHT22;310;48.490;9.200;2023-03-14T13:36:02;10.50;35.80
652;DHT22;310;48.490;9.200;2023-03-14T13:38:31;10.20;36.90
652;DHT22;310;48.490;9.200;2023-03-14T13:41:04;10.60;33.50
652;DHT22;310;48.490;9.200;2023-03-14T13:43:41;10.50;31.30
652;DHT22;310;48.490;9.200;2023-03-14T13:46:22;10.20;32.30
652;DHT22;310;48.490;9.200;2023-03-14T13:49:20;10.30;32.60
652;DHT22;310;48.490;9.200;2023-03-14T13:51:47;9.90;33.50
652;DHT22;310;48.490;9.200;2023-03-14T13:54:18;10.00;30.90
652;DHT22;310;48.490;9.200;2023-03-14T13:56:44;10.00;31.20
652;DHT22;310;48.490;9.200;2023-03-14T13:59:30;10.30;31.90
652;DHT22;310;48.490;9.200;2023-03-14T14:01:57;9.90;32.70
652;DHT22;310;48.490;9.200;2023-03-14T14:04:25;9.90;33.30
652;DHT22;310;48.490;9.200;2023-03-14T14:06:59;9.70;32.70
652;DHT22;310;48.490;9.200;2023-03-14T14:09:27;9.70;33.10
652;DHT22;310;48.490;9.200;2023-03-14T14:12:03;9.80;31.80
652;DHT22;310;48.490;9.200;2023-03-14T14:17:14;9.90;31.00
652;DHT22;310;48.490;9.200;2023-03-14T14:19:41;10.30;29.90
652;DHT22;310;48.490;9.200;2023-03-14T14:22:09;9.70;30.30
652;DHT22;310;48.490;9.200;2023-03-14T14:24:36;10.10;29.50
652;DHT22;310;48.490;9.200;2023-03-14T14:27:17;10.20;29.10
652;DHT22;310;48.490;9.200;2023-03-14T14:29:44;10.40;30.00
652;DHT22;310;48.490;9.200;2023-03-14T14:32:21;10.30;30.70
652;DHT22;310;48.490;9.200;2023-03-14T14:34:57;10.20;30.60
652;DHT22;310;48.490;9.200;2023-03-14T14:37:25;10.30;31.70
652;DHT22;310;48.490;9.200;2023-03-14T14:39:55;10.60;30.60
652;DHT22;310;48.490;9.200;2023-03-14T14:42:30;10.50;30.50
652;DHT22;310;48.490;9.200;2023-03-14T14:44:57;10.30;30.50
652;DHT22;310;48.490;9.200;2023-03-14T14:47:26;10.10;30.00
652;DHT22;310;48.490;9.200;2023-03-14T14:49:54;10.10;29.90
652;DHT22;310;48.490;9.200;2023-03-14T14:52:30;9.80;31.00
652;DHT22;310;48.490;9.200;2023-03-14T14:55:01;9.80;29.40
652;DHT22;310;48.490;9.200;2023-03-14T14:57:30;9.80;29.20
652;DHT22;310;48.490;9.200;2023-03-14T15:00:01;10.20;27.50
652;DHT22;310;48.490;9.200;2023-03-14T15:02:41;10.10;27.80
652;DHT22;310;48.490;9.200;2023-03-14T15:05:17;10.30;26.90
652;DHT22;310;48.490;9.200;2023-03-14T15:07:43;10.20;27.70
652;DHT22;310;48.490;9.200;2023-03-14T15:10:11;9.90;28.10
652;DHT22;310;48.490;9.200;2023-03-14T15:12:37;10.20;27.70
652;DHT22;310;48.490;9.200;2023-03-14T15:15:03;10.50;27.70
652;DHT22;310;48.490;9.200;2023-03-14T15:17:29;10.50;28.20
652;DHT22;310;48.490;9.200;2023-03-14T15:19:54;10.80;26.60
652;DHT22;310;48.490;9.200;2023-03-14T15:22:22;10.40;25.90
652;DHT22;310;48.490;9.200;2023-03-14T15:24:48;9.90;27.80
652;DHT22;310;48.490;9.200;2023-03-14T15:27:15;10.30;27.10
652;DHT22;310;48.490;9.200;2023-03-14T15:29:41;10.30;25.50
652;DHT22;310;48.490;9.200;2023-03-14T15:32:16;10.30;25.30
652;DHT22;310;48.490;9.200;2023-03-14T15:34:43;10.70;25.30
652;DHT22;310;48.490;9.200;2023-03-14T15:37:14;10.70;25.20
652;DHT22;310;48.490;9.200;2023-03-14T15:39:42;10.50;25.80
652;DHT22;310;48.490;9.200;2023-03-14T15:42:07;10.70;26.00
652;DHT22;310;48.490;9.200;2023-03-14T15:47:12;10.70;25.50
652;DHT22;310;48.490;9.200;2023-03-14T15:49:38;10.70;25.90
652;DHT22;310;48.490;9.200;2023-03-14T15:52:04;10.70;25.80
652;DHT22;310;48.490;9.200;2023-03-14T15:54:29;11.40;25.50
652;DHT22;310;48.490;9.200;2023-03-14T15:56:56;11.60;25.10
652;DHT22;310;48.490;9.200;2023-03-14T15:59:22;11.30;25.10
652;DHT22;310;48.490;9.200;2023-03-14T16:01:48;10.90;25.40
652;DHT22;310;48.490;9.200;2023-03-14T16:04:14;10.80;26.60
652;DHT22;310;48.490;9.200;2023-03-14T16:06:40;11.00;26.20
652;DHT22;310;48.490;9.200;2023-03-14T16:09:06;11.30;26.70
652;DHT22;310;48.490;9.200;2023-03-14T16:11:32;10.90;26.30
652;DHT22;310;48.490;9.200;2023-03-14T16:13:57;11.30;26.30
652;DHT22;310;48.490;9.200;2023-03-14T16:16:23;11.30;26.50
652;DHT22;310;48.490;9.200;2023-03-14T16:18:49;11.70;25.60
652;DHT22;310;48.490;9.200;2023-03-14T16:21:17;11.30;26.10
652;DHT22;310;48.490;9.200;2023-03-14T16:23:43;11.40;26.00
652;DHT22;310;48.490;9.200;2023-03-14T16:26:13;12.20;25.70
652;DHT22;310;48.490;9.200;2023-03-14T16:28:40;11.60;25.10
652;DHT22;310;48.490;9.200;2023-03-14T16:31:12;11.70;25.30
652;DHT22;310;48.490;9.200;2023-03-14T16:33:38;12.10;25.20
652;DHT22;310;48.490;9.200;2023-03-14T16:36:06;11.50;25.50
652;DHT22;310;48.490;9.200;2023-03-14T16:38:36;11.40;26.20
652;DHT22;310;48.490;9.200;2023-03-14T16:41:09;11.40;26.00
652;DHT22;310;48.490;9.200;2023-03-14T16:43:35;11.90;25.40
652;DHT22;310;48.490;9.200;2023-03-14T16:46:05;12.10;25.40
652;DHT22;310;48.490;9.200;2023-03-14T16:48:30;11.70;25.50
652;DHT22;310;48.490;9.200;2023-03-14T16:50:56;11.80;25.00
652;DHT22;310;48.490;9.200;2023-03-14T16:53:23;11.70;25.10
652;DHT22;310;48.490;9.200;2023-03-14T16:55:49;11.20;26.00
652;DHT22;310;48.490;9.200;2023-03-14T16:58:15;11.90;26.10
652;DHT22;310;48.490;9.200;2023-03-14T17:00:43;11.40;26.00
652;DHT22;310;48.490;9.200;2023-03-14T17:03:08;11.00;26.90
652;DHT22;310;48.490;9.200;2023-03-14T17:05:36;11.00;27.00
652;DHT22;310;48.490;9.200;2023-03-14T17:08:02;11.20;26.90
652;DHT22;310;48.490;9.200;2023-03-14T17:10:27;11.00;26.80
652;DHT22;310;48.490;9.200;2023-03-14T17:12:53;10.80;27.40
652;DHT22;310;48.490;9.200;2023-03-14T17:15:19;10.30;28.20
652;DHT22;310;48.490;9.200;2023-03-14T17:17:44;10.20;28.70
652;DHT22;310;48.490;9.200;2023-03-14T17:20:11;9.90;30.20
652;DHT22;310;48.490;9.200;2023-03-14T17:22:36;9.60;31.20
652;DHT22;310;48.490;9.200;2023-03-14T17:25:02;9.60;31.70
652;DHT22;310;48.490;9.200;2023-03-14T17:27:28;9.90;32.10
652;DHT22;310;48.490;9.200;2023-03-14T17:29:54;9.70;32.70
652;DHT22;310;48.490;9.200;2023-03-14T17:32:20;9.70;33.10
652;DHT22;310;48.490;9.200;2023-03-14T17:34:45;9.70;33.50
652;DHT22;310;48.490;9.200;2023-03-14T17:37:11;9.30;35.20
652;DHT22;310;48.490;9.200;2023-03-14T17:39:37;9.20;37.20
652;DHT22;310;48.490;9.200;2023-03-14T17:42:07;9.10;37.80
652;DHT22;310;48.490;9.200;2023-03-14T17:44:33;9.10;38.00
652;DHT22;310;48.490;9.200;2023-03-14T17:46:59;9.10;40.30
652;DHT22;310;48.490;9.200;2023-03-14T17:49:25;9.10;41.40